Terminal Aerodrome Forecast
Issued by NWS Jackson, MS

Home | Current Version | Previous Version | Text Only | Print | Product List | Glossary On
Versions: 1 2 3 4 5 6 7 8 9 10 11 12 13
775
FTUS44 KJAN 251125
TAFHBG
TAF
KHBG 251125Z 2512/2612 15010G17KT P6SM VCSH SCT015 BKN025
     FM251600 17013G22KT 4SM TSRA BKN025CB BKN250
     FM251830 18013G22KT 6SM -SHRA VCTS SCT025 BKN050CB
     FM252100 18010KT 5SM -TSRA BKN025CB OVC250
     FM252300 18009KT P6SM VCTS SCT030 BKN050CB BKN250
     FM260400 17005KT P6SM VCSH BKN025 BKN250
     FM260600 18004KT 5SM BR BKN003 BKN250=

USA.gov is the U.S. government's official web portal to all federal, state and local government web resources and services.